Observation data for Aspermont on 12/13/2019      Previous  Date       Current Mesonet Observations  Soil Data  Daily Summary Page  Observations in Plain Language
KASR 130600Z 23005KT 05/03 A2995 RMK A01 T00530028  RH  085%=      5-min Rain = 0
KASR 130605Z 23005KT 05/03 A2994 RMK A01 T00530028  RH  085%=      5-min Rain = 0
KASR 130610Z 23003KT 05/03 A2995 RMK A01 T00500026  RH  085%=      5-min Rain = 0
KASR 130615Z 26003KT 05/02 A2995 RMK A01 T00470024  RH  086%=      5-min Rain = 0
KASR 130620Z 27003KT 04/02 A2995 RMK A01 T00440022  RH  087%=      5-min Rain = 0
KASR 130625Z 26003KT 04/02 A2994 RMK A01 T00420021  RH  087%=      5-min Rain = 0
KASR 130630Z 25003KT 04/02 A2994 RMK A01 T00420023  RH  088%=      5-min Rain = 0
KASR 130635Z 25004KT 04/03 A2994 RMK A01 T00440027  RH  089%=      5-min Rain = 0
KASR 130640Z 26003KT 05/03 A2994 RMK A01 T00450026  RH  089%=      5-min Rain = 0
KASR 130645Z 26003KT 05/03 A2994 RMK A01 T00460027  RH  089%=      5-min Rain = 0
KASR 130650Z 27003KT 05/03 A2994 RMK A01 T00480028  RH  089%=      5-min Rain = 0
KASR 130655Z 26002KT 05/03 A2994 RMK A01 T00470027  RH  088%=      5-min Rain = 0
KASR 130700Z 27002KT 04/02 A2994 RMK A01 T00420021  RH  088%=      5-min Rain = 0
KASR 130705Z 25003KT 04/02 A2994 RMK A01 T00380019  RH  089%=      5-min Rain = 0
KASR 130710Z 18006KT 03/01 A2994 RMK A01 T00320013  RH  088%=      5-min Rain = 0
KASR 130715Z 19006KT 03/01 A2993 RMK A01 T00290013  RH  090%=      5-min Rain = 0
KASR 130720Z 19007KT 03/01 A2993 RMK A01 T00280014  RH  092%=      5-min Rain = 0
KASR 130725Z 17006KT 03/02 A2993 RMK A01 T00310016  RH  091%=      5-min Rain = 0
KASR 130730Z 18005KT 03/01 A2993 RMK A01 T00280012  RH  090%=      5-min Rain = 0
KASR 130735Z 19005KT 02/01 A2993 RMK A01 T00240009  RH  091%=      5-min Rain = 0
KASR 130740Z 20004KT 02/01 A2992 RMK A01 T00230009  RH  092%=      5-min Rain = 0
KASR 130745Z 21003KT 03/01 A2992 RMK A01 T00250011  RH  092%=      5-min Rain = 0
KASR 130750Z 21004KT 03/01 A2992 RMK A01 T00260013  RH  092%=      5-min Rain = 0
KASR 130755Z 20005KT 03/01 A2992 RMK A01 T00270012  RH  091%=      5-min Rain = 0
KASR 130800Z 19005KT 03/01 A2992 RMK A01 T00270011  RH  090%=      5-min Rain = 0
KASR 130805Z 20003KT 03/01 A2992 RMK A01 T00280013  RH  091%=      5-min Rain = 0
KASR 130810Z 24002KT 03/01 A2993 RMK A01 T00290013  RH  090%=      5-min Rain = 0
KASR 130815Z 28002KT 03/01 A2992 RMK A01 T00260009  RH  090%=      5-min Rain = 0
KASR 130820Z 25003KT 02/01 A2992 RMK A01 T00240010  RH  091%=      5-min Rain = 0
KASR 130825Z 28003KT 02/01 A2992 RMK A01 T00210005  RH  090%=      5-min Rain = 0
KASR 130830Z 29003KT 02/M00 A2992 RMK A01 T00151001  RH  090%=      5-min Rain = 0
KASR 130835Z 29003KT 01/M00 A2992 RMK A01 T00131001  RH  091%=      5-min Rain = 0
KASR 130840Z 29003KT 02/00 A2992 RMK A01 T00150003  RH  093%=      5-min Rain = 0
KASR 130845Z 27003KT 02/01 A2991 RMK A01 T00220011  RH  094%=      5-min Rain = 0
KASR 130850Z 25003KT 03/01 A2991 RMK A01 T00250011  RH  092%=      5-min Rain = 0
KASR 130855Z 25003KT 02/01 A2991 RMK A01 T00230008  RH  091%=      5-min Rain = 0
KASR 130900Z 24003KT 02/00 A2991 RMK A01 T00190004  RH  091%=      5-min Rain = 0
KASR 130905Z 22003KT 02/01 A2991 RMK A01 T00180005  RH  092%=      5-min Rain = 0
KASR 130910Z 23004KT 02/01 A2991 RMK A01 T00180006  RH  092%=      5-min Rain = 0
KASR 130915Z 25003KT 02/01 A2991 RMK A01 T00220009  RH  093%=      5-min Rain = 0
KASR 130920Z 26003KT 02/01 A2991 RMK A01 T00220008  RH  091%=      5-min Rain = 0
KASR 130925Z 26004KT 03/01 A2991 RMK A01 T00250011  RH  092%=      5-min Rain = 0
KASR 130930Z 28004KT 03/01 A2991 RMK A01 T00260009  RH  090%=      5-min Rain = 0
KASR 130935Z 29004KT 02/M00 A2992 RMK A01 T00161003  RH  088%=      5-min Rain = 0
KASR 130940Z 30006KT 01/M01 A2992 RMK A01 T00111005  RH  090%=      5-min Rain = 0
KASR 130945Z 30005KT 01/M00 A2992 RMK A01 T00121001  RH  092%=      5-min Rain = 0
KASR 130950Z 31004KT 01/M00 A2992 RMK A01 T00121001  RH  092%=      5-min Rain = 0
KASR 130955Z 30003KT 01/M00 A2991 RMK A01 T00111002  RH  092%=      5-min Rain = 0
KASR 131000Z 29004KT 01/00 A2991 RMK A01 T00130001  RH  092%=      5-min Rain = 0
KASR 131005Z 28005KT 01/M00 A2991 RMK A01 T00121001  RH  092%=      5-min Rain = 0
KASR 131010Z 27005KT 01/M00 A2991 RMK A01 T00121001  RH  092%=      5-min Rain = 0
KASR 131015Z 27004KT 01/M00 A2991 RMK A01 T00121001  RH  092%=      5-min Rain = 0
KASR 131020Z 27004KT 01/M00 A299 RMK A01 T00111002  RH  092%=      5-min Rain = 0
KASR 131025Z 27004KT 01/M00 A299 RMK A01 T00111002  RH  093%=      5-min Rain = 0
KASR 131030Z 27004KT 01/M00 A299 RMK A01 T00121001  RH  093%=      5-min Rain = 0
KASR 131035Z 28004KT 01/M00 A299 RMK A01 T00111001  RH  093%=      5-min Rain = 0
KASR 131040Z 28003KT 01/M00 A299 RMK A01 T00111001  RH  093%=      5-min Rain = 0
KASR 131045Z 28004KT 01/M00 A299 RMK A01 T00101002  RH  092%=      5-min Rain = 0
KASR 131050Z 28004KT 01/M00 A299 RMK A01 T00091004  RH  092%=      5-min Rain = 0
KASR 131055Z 28004KT 01/M00 A299 RMK A01 T00091003  RH  092%=      5-min Rain = 0
KASR 131100Z 29004KT 01/M00 A299 RMK A01 T00101003  RH  092%=      5-min Rain = 0
KASR 131105Z 28004KT 01/M01 A2991 RMK A01 T00081005  RH  092%=      5-min Rain = 0
KASR 131110Z 27004KT 01/M01 A2991 RMK A01 T00071006  RH  092%=      5-min Rain = 0
KASR 131115Z 27004KT 01/M01 A2991 RMK A01 T00051008  RH  092%=      5-min Rain = 0
KASR 131120Z 26004KT 01/M01 A299 RMK A01 T00071005  RH  093%=      5-min Rain = 0
KASR 131125Z 26004KT 01/M00 A299 RMK A01 T00081004  RH  093%=      5-min Rain = 0
KASR 131130Z 25005KT 01/M01 A299 RMK A01 T00061007  RH  092%=      5-min Rain = 0
KASR 131135Z 25005KT 00/M01 A299 RMK A01 T00041009  RH  092%=      5-min Rain = 0
KASR 131140Z 25005KT 00/M01 A2989 RMK A01 T00031009  RH  092%=      5-min Rain = 0
KASR 131145Z 25006KT 00/M01 A2989 RMK A01 T00041009  RH  093%=      5-min Rain = 0
KASR 131150Z 26006KT 00/M01 A299 RMK A01 T00031010  RH  092%=      5-min Rain = 0
KASR 131155Z 27005KT 00/M01 A299 RMK A01 T00041009  RH  092%=      5-min Rain = 0
KASR 131200Z 28004KT 01/M01 A299 RMK A01 T00051008  RH  092%=      5-min Rain = 0
KASR 131205Z 27004KT 00/M01 A299 RMK A01 T00041009  RH  092%=      5-min Rain = 0
KASR 131210Z 24005KT 00/M01 A299 RMK A01 T00021011  RH  092%=      5-min Rain = 0
KASR 131215Z 25005KT 00/M01 A299 RMK A01 T00031010  RH  093%=      5-min Rain = 0
KASR 131220Z 25005KT 00/M01 A299 RMK A01 T00041008  RH  092%=      5-min Rain = 0
KASR 131225Z 25005KT 01/M01 A2991 RMK A01 T00051008  RH  092%=      5-min Rain = 0
KASR 131230Z 24004KT 01/M01 A2991 RMK A01 T00061007  RH  092%=      5-min Rain = 0
KASR 131235Z 25006KT 01/M01 A2991 RMK A01 T00081007  RH  091%=      5-min Rain = 0
KASR 131240Z 25006KT 01/M01 A2992 RMK A01 T00071008  RH  091%=      5-min Rain = 0
KASR 131245Z 25006KT 01/M01 A2991 RMK A01 T00071007  RH  091%=      5-min Rain = 0
KASR 131250Z 25005KT 01/M01 A2991 RMK A01 T00091006  RH  091%=      5-min Rain = 0
KASR 131255Z 26004KT 01/M01 A2992 RMK A01 T00101006  RH  090%=      5-min Rain = 0
KASR 131300Z 25004KT 01/M01 A2991 RMK A01 T00101006  RH  090%=      5-min Rain = 0
KASR 131305Z 25003KT 01/M01 A2991 RMK A01 T00111006  RH  090%=      5-min Rain = 0
KASR 131310Z 25003KT 01/M01 A2991 RMK A01 T00111006  RH  089%=      5-min Rain = 0
KASR 131315Z 26003KT 01/M01 A2992 RMK A01 T00111006  RH  089%=      5-min Rain = 0
KASR 131320Z 28002KT 01/M01 A2991 RMK A01 T00111006  RH  089%=      5-min Rain = 0
KASR 131325Z 28002KT 01/M01 A2991 RMK A01 T00121006  RH  089%=      5-min Rain = 0
KASR 131330Z 29002KT 01/M01 A2991 RMK A01 T00131006  RH  088%=      5-min Rain = 0
KASR 131335Z 27002KT 01/M01 A2992 RMK A01 T00131006  RH  088%=      5-min Rain = 0
KASR 131340Z 27002KT 01/M01 A2993 RMK A01 T00131007  RH  088%=      5-min Rain = 0
KASR 131345Z 30002KT 01/M01 A2992 RMK A01 T00121007  RH  088%=      5-min Rain = 0
KASR 131350Z 26002KT 01/M01 A2992 RMK A01 T00111007  RH  089%=      5-min Rain = 0
KASR 131355Z 25002KT 01/M01 A2992 RMK A01 T00131005  RH  089%=      5-min Rain = 0
KASR 131400Z 27001KT 01/M01 A2992 RMK A01 T00121007  RH  088%=      5-min Rain = 0
KASR 131405Z 21002KT 01/M01 A2992 RMK A01 T00101008  RH  089%=      5-min Rain = 0
KASR 131410Z 22004KT 01/M01 A2992 RMK A01 T00091007  RH  090%=      5-min Rain = 0
KASR 131415Z 22004KT 02/M00 A2992 RMK A01 T00161002  RH  089%=      5-min Rain = 0
KASR 131420Z 22004KT 02/M00 A2992 RMK A01 T00191001  RH  087%=      5-min Rain = 0
KASR 131425Z 24004KT 02/00 A2992 RMK A01 T00230001  RH  087%=      5-min Rain = 0
KASR 131430Z 24005KT 03/00 A2992 RMK A01 T00250004  RH  086%=      5-min Rain = 0
KASR 131435Z 24004KT 03/01 A2993 RMK A01 T00290006  RH  086%=      5-min Rain = 0
KASR 131440Z 25004KT 03/01 A2993 RMK A01 T00330010  RH  086%=      5-min Rain = 0
KASR 131445Z 26004KT 04/01 A2993 RMK A01 T00370012  RH  085%=      5-min Rain = 0
KASR 131450Z 26003KT 04/01 A2994 RMK A01 T00390011  RH  083%=      5-min Rain = 0
KASR 131455Z 24003KT 04/02 A2994 RMK A01 T00420015  RH  083%=      5-min Rain = 0
KASR 131500Z 23004KT 05/02 A2994 RMK A01 T00450016  RH  082%=      5-min Rain = 0
KASR 131505Z 25006KT 05/02 A2994 RMK A01 T00490017  RH  081%=      5-min Rain = 0
KASR 131510Z 25005KT 05/02 A2995 RMK A01 T00530016  RH  078%=      5-min Rain = 0
KASR 131515Z 25005KT 06/02 A2995 RMK A01 T00570019  RH  078%=      5-min Rain = 0
KASR 131520Z 26005KT 06/02 A2995 RMK A01 T00610020  RH  076%=      5-min Rain = 0
KASR 131525Z 26005KT 06/02 A2995 RMK A01 T00640022  RH  075%=      5-min Rain = 0
KASR 131530Z 27004KT 07/02 A2995 RMK A01 T00690024  RH  074%=      5-min Rain = 0
KASR 131535Z 26005KT 08/03 A2995 RMK A01 T00750026  RH  072%=      5-min Rain = 0
KASR 131540Z 27005KT 08/03 A2995 RMK A01 T00790026  RH  070%=      5-min Rain = 0
KASR 131545Z 28004KT 08/02 A2995 RMK A01 T00820024  RH  068%=      5-min Rain = 0
KASR 131550Z 28003KT 08/02 A2995 RMK A01 T00840024  RH  067%=      5-min Rain = 0
KASR 131555Z 29004KT 09/02 A2995 RMK A01 T00870024  RH  065%=      5-min Rain = 0
KASR 131600Z 28004KT 09/02 A2995 RMK A01 T00880020  RH  063%=      5-min Rain = 0
KASR 131605Z 29003KT 09/02 A2995 RMK A01 T00930023  RH  062%=      5-min Rain = 0
KASR 131610Z 29002KT 10/02 A2995 RMK A01 T00970022  RH  060%=      5-min Rain = 0
KASR 131615Z 27002KT 10/02 A2995 RMK A01 T01010023  RH  059%=      5-min Rain = 0
KASR 131620Z 25001KT 11/02 A2994 RMK A01 T01050024  RH  058%=      5-min Rain = 0
KASR 131625Z 27002KT 11/03 A2994 RMK A01 T01100026  RH  057%=      5-min Rain = 0
KASR 131630Z 29001KT 11/03 A2994 RMK A01 T01130029  RH  057%=      5-min Rain = 0
KASR 131635Z 28002KT 12/03 A2994 RMK A01 T01180027  RH  054%=      5-min Rain = 0
KASR 131640Z 29002KT 12/03 A2994 RMK A01 T01180027  RH  054%=      5-min Rain = 0
KASR 131645Z 29001KT 12/03 A2993 RMK A01 T01190028  RH  054%=      5-min Rain = 0
KASR 131650Z 32002KT 12/03 A2993 RMK A01 T01230030  RH  054%=      5-min Rain = 0
KASR 131655Z 22002KT 13/03 A2992 RMK A01 T01280032  RH  053%=      5-min Rain = 0
KASR 131700Z 20002KT 13/03 A2992 RMK A01 T01320033  RH  052%=      5-min Rain = 0
KASR 131705Z 22002KT 13/04 A2992 RMK A01 T01330035  RH  052%=      5-min Rain = 0
KASR 131710Z 27002KT 14/04 A2992 RMK A01 T01350035  RH  052%=      5-min Rain = 0
KASR 131715Z 22001KT 14/04 A2991 RMK A01 T01390037  RH  051%=      5-min Rain = 0
KASR 131720Z 25002KT 14/04 A2991 RMK A01 T01430037  RH  049%=      5-min Rain = 0
KASR 131725Z 22004KT 15/04 A2991 RMK A01 T01450037  RH  049%=      5-min Rain = 0
KASR 131730Z 22004KT 15/04 A299 RMK A01 T01460036  RH  048%=      5-min Rain = 0
KASR 131735Z 22004KT 15/04 A2991 RMK A01 T01480036  RH  048%=      5-min Rain = 0
KASR 131740Z 21004KT 15/04 A299 RMK A01 T01530035  RH  046%=      5-min Rain = 0
KASR 131745Z 20003KT 16/04 A299 RMK A01 T01550035  RH  045%=      5-min Rain = 0
KASR 131750Z 21003KT 16/04 A2989 RMK A01 T01570035  RH  045%=      5-min Rain = 0
KASR 131755Z 20003KT 16/04 A2989 RMK A01 T01580035  RH  044%=      5-min Rain = 0
KASR 131800Z 20003KT 16/04 A2989 RMK A01 T01610036  RH  044%=      5-min Rain = 0
KASR 131805Z 19005KT 16/04 A2989 RMK A01 T01620035  RH  043%=      5-min Rain = 0
KASR 131810Z 24006KT 17/03 A2989 RMK A01 T01650026  RH  040%=      5-min Rain = 0
KASR 131815Z 24005KT 17/02 A2989 RMK A01 T01650023  RH  039%=      5-min Rain = 0
KASR 131820Z 23005KT 17/02 A2988 RMK A01 T01680020  RH  037%=      5-min Rain = 0
KASR 131825Z 25007KT 17/02 A2988 RMK A01 T01710019  RH  036%=      5-min Rain = 0
KASR 131830Z 27006KT 17/01 A2988 RMK A01 T01720014  RH  035%=      5-min Rain = 0
KASR 131835Z 25007KT 17/01 A2987 RMK A01 T01720010  RH  034%=      5-min Rain = 0
KASR 131840Z 24005KT 18/01 A2987 RMK A01 T01760011  RH  033%=      5-min Rain = 0
KASR 131845Z 24007KT 18/01 A2987 RMK A01 T01780011  RH  033%=      5-min Rain = 0
KASR 131850Z 29006KT 18/01 A2987 RMK A01 T01810008  RH  032%=      5-min Rain = 0
KASR 131855Z 24008KT 18/01 A2987 RMK A01 T01820007  RH  031%=      5-min Rain = 0
KASR 131900Z 22004G10KT 18/01 A2986 RMK A01 T01810006  RH  031%=      5-min Rain = 0
KASR 131905Z 22006KT 18/01 A2985 RMK A01 T01840008  RH  031%=      5-min Rain = 0
KASR 131910Z 23006KT 18/01 A2985 RMK A01 T01840007  RH  031%=      5-min Rain = 0
KASR 131915Z 22007KT 19/01 A2985 RMK A01 T01850008  RH  031%=      5-min Rain = 0
KASR 131920Z 22007KT 19/01 A2984 RMK A01 T01890008  RH  030%=      5-min Rain = 0
KASR 131925Z 25006G11KT 19/01 A2984 RMK A01 T01900005  RH  029%=      5-min Rain = 0
KASR 131930Z 25007G12KT 19/00 A2983 RMK A01 T01930002  RH  028%=      5-min Rain = 0
KASR 131935Z 26006KT 19/00 A2984 RMK A01 T01940002  RH  028%=      5-min Rain = 0
KASR 131940Z 26006KT 20/00 A2984 RMK A01 T01970001  RH  027%=      5-min Rain = 0
KASR 131945Z 23005KT 20/00 A2984 RMK A01 T01960001  RH  027%=      5-min Rain = 0
KASR 131950Z 25007KT 20/01 A2984 RMK A01 T02010005  RH  027%=      5-min Rain = 0
KASR 131955Z 25005KT 20/01 A2983 RMK A01 T02030007  RH  027%=      5-min Rain = 0
KASR 132000Z 27003KT 20/01 A2982 RMK A01 T02040007  RH  027%=      5-min Rain = 0
KASR 132005Z 28005KT 21/01 A2983 RMK A01 T02060008  RH  027%=      5-min Rain = 0
KASR 132010Z 27006G12KT 21/01 A2982 RMK A01 T02060006  RH  027%=      5-min Rain = 0
KASR 132015Z 31007KT 21/01 A2982 RMK A01 T02080008  RH  027%=      5-min Rain = 0
KASR 132020Z 29006KT 21/01 A2982 RMK A01 T02080007  RH  027%=      5-min Rain = 0
KASR 132025Z 30005KT 21/01 A2982 RMK A01 T02120009  RH  026%=      5-min Rain = 0
KASR 132030Z 27005KT 21/01 A2982 RMK A01 T02120006  RH  026%=      5-min Rain = 0
KASR 132035Z 28006KT 21/01 A2982 RMK A01 T02120008  RH  026%=      5-min Rain = 0
KASR 132040Z 28004KT 21/01 A2981 RMK A01 T02120008  RH  026%=      5-min Rain = 0
KASR 132045Z 33006KT 21/01 A2981 RMK A01 T02130010  RH  026%=      5-min Rain = 0
KASR 132050Z 35005KT 21/01 A298 RMK A01 T02120008  RH  026%=      5-min Rain = 0
KASR 132055Z 33004KT 21/01 A298 RMK A01 T02120008  RH  026%=      5-min Rain = 0
KASR 132100Z 35002KT 21/01 A298 RMK A01 T02130006  RH  025%=      5-min Rain = 0
KASR 132105Z 36003KT 22/01 A298 RMK A01 T02150009  RH  026%=      5-min Rain = 0
KASR 132110Z 31002KT 22/01 A298 RMK A01 T02160010  RH  026%=      5-min Rain = 0
KASR 132115Z 34002KT 22/01 A2981 RMK A01 T02160011  RH  026%=      5-min Rain = 0
KASR 132120Z 36002KT 22/01 A2981 RMK A01 T02160010  RH  026%=      5-min Rain = 0
KASR 132125Z 07002KT 22/01 A2981 RMK A01 T02190009  RH  025%=      5-min Rain = 0
KASR 132130Z 12003KT 22/01 A2981 RMK A01 T02190009  RH  025%=      5-min Rain = 0
KASR 132135Z 05002KT 22/01 A2981 RMK A01 T02210010  RH  025%=      5-min Rain = 0
KASR 132140Z 27002KT 22/01 A2981 RMK A01 T02200008  RH  025%=      5-min Rain = 0
KASR 132145Z 16001KT 22/01 A2981 RMK A01 T02240009  RH  024%=      5-min Rain = 0
KASR 132150Z 25003G8KT 23/01 A2981 RMK A01 T02270010  RH  024%=      5-min Rain = 0
KASR 132155Z 29004KT 23/01 A2981 RMK A01 T02250011  RH  025%=      5-min Rain = 0
KASR 132200Z 28006KT 23/01 A2981 RMK A01 T02260012  RH  025%=      5-min Rain = 0
KASR 132205Z 29008KT 23/01 A2981 RMK A01 T02270012  RH  024%=      5-min Rain = 0
KASR 132210Z 29010KT 23/01 A2981 RMK A01 T02270011  RH  024%=      5-min Rain = 0
KASR 132215Z 28012G17KT 23/01 A2981 RMK A01 T02250006  RH  024%=      5-min Rain = 0
KASR 132220Z 28012G17KT 22/00 A2981 RMK A01 T02200003  RH  024%=      5-min Rain = 0
KASR 132225Z 29013KT 22/M00 A2981 RMK A01 T02151002  RH  024%=      5-min Rain = 0
KASR 132230Z 28010KT 21/M00 A2981 RMK A01 T02111003  RH  024%=      5-min Rain = 0
KASR 132235Z 28010KT 21/00 A2981 RMK A01 T020900-0  RH  025%=      5-min Rain = 0
KASR 132240Z 29008KT 21/00 A2981 RMK A01 T02100001  RH  025%=      5-min Rain = 0
KASR 132245Z 28008KT 21/00 A2981 RMK A01 T02100001  RH  025%=      5-min Rain = 0
KASR 132250Z 28008KT 21/00 A2981 RMK A01 T02090000  RH  025%=      5-min Rain = 0
KASR 132255Z 28008KT 21/00 A2981 RMK A01 T02070000  RH  025%=      5-min Rain = 0
KASR 132300Z 28007KT 20/00 A2981 RMK A01 T02040001  RH  026%=      5-min Rain = 0
KASR 132305Z 28007KT 20/00 A2982 RMK A01 T02020001  RH  026%=      5-min Rain = 0
KASR 132310Z 27006KT 20/00 A2982 RMK A01 T01990001  RH  027%=      5-min Rain = 0
KASR 132315Z 27005KT 20/00 A2982 RMK A01 T01950000  RH  027%=      5-min Rain = 0
KASR 132320Z 26005KT 19/00 A2982 RMK A01 T01900000  RH  028%=      5-min Rain = 0
KASR 132325Z 26005KT 19/M00 A2982 RMK A01 T01861002  RH  028%=      5-min Rain = 0
KASR 132330Z 25005KT 18/M00 A2982 RMK A01 T01811003  RH  029%=      5-min Rain = 0
KASR 132335Z 25005KT 18/M00 A2982 RMK A01 T01781004  RH  030%=      5-min Rain = 0
KASR 132340Z 25006KT 17/M00 A2982 RMK A01 T01741004  RH  030%=      5-min Rain = 0
KASR 132345Z 26006KT 17/M00 A2983 RMK A01 T01681002  RH  032%=      5-min Rain = 0
KASR 132350Z 03007KT 16/00 A2983 RMK A01 T01560003  RH  036%=      5-min Rain = 0
KASR 132355Z 03005KT 16/01 A2983 RMK A01 T01580010  RH  037%=      5-min Rain = 0
KASR 140000Z 02003KT 16/01 A2983 RMK A01 T01640007  RH  035%=      5-min Rain = 0
KASR 140005Z 07005KT 16/01 A2982 RMK A01 T01630007  RH  035%=      5-min Rain = 0
KASR 140010Z 08006KT 15/01 A2982 RMK A01 T01530009  RH  038%=      5-min Rain = 0
KASR 140015Z 08007KT 15/01 A2982 RMK A01 T01450011  RH  041%=      5-min Rain = 0
KASR 140020Z 09008KT 14/01 A2982 RMK A01 T01370013  RH  043%=      5-min Rain = 0
KASR 140025Z 08008KT 14/01 A2982 RMK A01 T01370013  RH  043%=      5-min Rain = 0
KASR 140030Z 08007KT 13/01 A2982 RMK A01 T01320014  RH  045%=      5-min Rain = 0
KASR 140035Z 08007KT 13/01 A2983 RMK A01 T01280013  RH  046%=      5-min Rain = 0
KASR 140040Z 08007KT 13/01 A2983 RMK A01 T01260013  RH  047%=      5-min Rain = 0
KASR 140045Z 09008KT 13/01 A2983 RMK A01 T01250013  RH  047%=      5-min Rain = 0
KASR 140050Z 08007KT 13/01 A2984 RMK A01 T01250012  RH  047%=      5-min Rain = 0
KASR 140055Z 08006KT 12/01 A2985 RMK A01 T01220012  RH  048%=      5-min Rain = 0
KASR 140100Z 08006KT 12/01 A2985 RMK A01 T01160012  RH  049%=      5-min Rain = 0
KASR 140105Z 08006KT 11/01 A2985 RMK A01 T01130011  RH  050%=      5-min Rain = 0
KASR 140110Z 08007KT 11/01 A2985 RMK A01 T01130012  RH  050%=      5-min Rain = 0
KASR 140115Z 08007KT 11/01 A2985 RMK A01 T01140013  RH  051%=      5-min Rain = 0
KASR 140120Z 09007KT 11/02 A2985 RMK A01 T01110015  RH  052%=      5-min Rain = 0
KASR 140125Z 10008KT 11/02 A2985 RMK A01 T01090018  RH  054%=      5-min Rain = 0
KASR 140130Z 09008KT 11/02 A2984 RMK A01 T01120020  RH  054%=      5-min Rain = 0
KASR 140135Z 10008KT 11/02 A2984 RMK A01 T01110021  RH  055%=      5-min Rain = 0
KASR 140140Z 10008KT 11/02 A2984 RMK A01 T01070021  RH  056%=      5-min Rain = 0
KASR 140145Z 11007KT 11/02 A2985 RMK A01 T01080020  RH  055%=      5-min Rain = 0
KASR 140150Z 11008KT 11/02 A2985 RMK A01 T01130020  RH  054%=      5-min Rain = 0
KASR 140155Z 11008KT 12/02 A2985 RMK A01 T01170023  RH  053%=      5-min Rain = 0
KASR 140200Z 11008KT 12/02 A2985 RMK A01 T01180024  RH  053%=      5-min Rain = 0
KASR 140205Z 11008KT 12/02 A2985 RMK A01 T01180023  RH  053%=      5-min Rain = 0
KASR 140210Z 11008KT 12/02 A2986 RMK A01 T01190023  RH  052%=      5-min Rain = 0
KASR 140215Z 11008KT 12/02 A2986 RMK A01 T01200024  RH  053%=      5-min Rain = 0
KASR 140220Z 11007KT 12/03 A2986 RMK A01 T01190025  RH  053%=      5-min Rain = 0
KASR 140225Z 12007KT 12/02 A2986 RMK A01 T01150023  RH  054%=      5-min Rain = 0
KASR 140230Z 13007KT 11/02 A2987 RMK A01 T01120023  RH  055%=      5-min Rain = 0
KASR 140235Z 13007KT 11/02 A2987 RMK A01 T01120023  RH  055%=      5-min Rain = 0
KASR 140240Z 13007KT 11/02 A2987 RMK A01 T01120022  RH  055%=      5-min Rain = 0
KASR 140245Z 14008KT 11/02 A2987 RMK A01 T01070024  RH  057%=      5-min Rain = 0
KASR 140250Z 14008KT 10/03 A2987 RMK A01 T01010025  RH  060%=      5-min Rain = 0
KASR 140255Z 14009KT 10/03 A2987 RMK A01 T00990025  RH  061%=      5-min Rain = 0
KASR 140300Z 14009KT 10/02 A2987 RMK A01 T00970024  RH  061%=      5-min Rain = 0
KASR 140305Z 15008KT 10/02 A2987 RMK A01 T00960024  RH  061%=      5-min Rain = 0
KASR 140310Z 15009KT 09/02 A2987 RMK A01 T00940024  RH  062%=      5-min Rain = 0
KASR 140315Z 15009KT 09/02 A2987 RMK A01 T00940023  RH  062%=      5-min Rain = 0
KASR 140320Z 16008KT 09/02 A2987 RMK A01 T00900022  RH  063%=      5-min Rain = 0
KASR 140325Z 16007KT 09/02 A2987 RMK A01 T00870020  RH  064%=      5-min Rain = 0
KASR 140330Z 16008KT 09/02 A2987 RMK A01 T00870019  RH  063%=      5-min Rain = 0
KASR 140335Z 16008KT 09/02 A2986 RMK A01 T00900017  RH  061%=      5-min Rain = 0
KASR 140340Z 16007KT 09/02 A2986 RMK A01 T00910017  RH  060%=      5-min Rain = 0
KASR 140345Z 16008KT 09/02 A2986 RMK A01 T00900016  RH  060%=      5-min Rain = 0
KASR 140350Z 15006KT 09/02 A2986 RMK A01 T00880015  RH  061%=      5-min Rain = 0
KASR 140355Z 02003KT 08/01 A2986 RMK A01 T00770012  RH  064%=      5-min Rain = 0
KASR 140400Z 02003KT 07/01 A2986 RMK A01 T00710012  RH  067%=      5-min Rain = 0
KASR 140405Z 05004KT 08/01 A2986 RMK A01 T00760013  RH  065%=      5-min Rain = 0
KASR 140410Z 04004KT 08/01 A2986 RMK A01 T00780012  RH  064%=      5-min Rain = 0
KASR 140415Z 03003KT 08/01 A2986 RMK A01 T00750011  RH  065%=      5-min Rain = 0
KASR 140420Z 36002KT 07/01 A2987 RMK A01 T00700011  RH  067%=      5-min Rain = 0
KASR 140425Z 00002KT 07/01 A2987 RMK A01 T00670010  RH  067%=      5-min Rain = 0
KASR 140430Z 34003KT 06/01 A2988 RMK A01 T00630009  RH  069%=      5-min Rain = 0
KASR 140435Z 35004KT 06/01 A2988 RMK A01 T00610010  RH  071%=      5-min Rain = 0
KASR 140440Z 36005KT 06/01 A2988 RMK A01 T00550007  RH  072%=      5-min Rain = 0
KASR 140445Z 01006KT 06/01 A2988 RMK A01 T00550009  RH  073%=      5-min Rain = 0
KASR 140450Z 01005KT 06/01 A2989 RMK A01 T00550010  RH  073%=      5-min Rain = 0
KASR 140455Z 36003KT 06/01 A2989 RMK A01 T00550010  RH  074%=      5-min Rain = 0
KASR 140500Z 01003KT 06/01 A2988 RMK A01 T00550009  RH  074%=      5-min Rain = 0
KASR 140505Z 02003KT 05/01 A2988 RMK A01 T00490006  RH  074%=      5-min Rain = 0
KASR 140510Z 00002KT 05/01 A2988 RMK A01 T00480008  RH  076%=      5-min Rain = 0
KASR 140515Z 34003KT 05/01 A2988 RMK A01 T00470007  RH  076%=      5-min Rain = 0
KASR 140520Z 34003KT 05/01 A2988 RMK A01 T00460006  RH  077%=      5-min Rain = 0
KASR 140525Z 36003KT 05/01 A2987 RMK A01 T00450007  RH  077%=      5-min Rain = 0
KASR 140530Z 36002KT 04/01 A2987 RMK A01 T00420006  RH  078%=      5-min Rain = 0
KASR 140535Z 36002KT 04/00 A2987 RMK A01 T00370002  RH  079%=      5-min Rain = 0
KASR 140540Z 35002KT 03/00 A2987 RMK A01 T00330002  RH  081%=      5-min Rain = 0
KASR 140545Z 35002KT 03/00 A2988 RMK A01 T00310003  RH  082%=      5-min Rain = 0
KASR 140550Z 34002KT 03/M00 A2988 RMK A01 T00271001  RH  083%=      5-min Rain = 0
KASR 140555Z 34004KT 03/00 A2989 RMK A01 T00290003  RH  084%=      5-min Rain = 0

Page generated in 0.0243 seconds.